Time;durP1;ratioP1;P1;durP2;ratioP2;P2;SDS_P1;SDS_P2;PMS_P1;PMS_P2;Temp;Humidity;BMP_temperature;BMP_pressure;BME280_temperature;BME280_humidity;BME280_pressure;Samples;Min_cycle;Max_cycle;Signal;HPM_P1;HPM_P2
2021/05/28 00:02:03;;;;;;;4.25;1.90;;;10.20;99.90;;;;;;5039499;28;20057;-71
2021/05/28 00:04:30;;;;;;;3.88;1.80;;;10.20;99.90;;;;;;5045860;28;20426;-71
2021/05/28 00:06:57;;;;;;;4.30;1.75;;;10.20;99.90;;;;;;5037197;28;20049;-71
2021/05/28 00:09:24;;;;;;;3.00;1.60;;;10.10;99.90;;;;;;5065123;28;20349;-71
2021/05/28 00:11:51;;;;;;;3.92;1.60;;;10.10;99.90;;;;;;5045499;28;20136;-71
2021/05/28 00:14:18;;;;;;;4.65;1.70;;;10.10;99.90;;;;;;5042837;28;20439;-70
2021/05/28 00:16:45;;;;;;;3.08;1.88;;;10.00;99.90;;;;;;5038286;28;20519;-71
2021/05/28 00:19:12;;;;;;;2.72;1.80;;;10.00;99.90;;;;;;5046139;28;20484;-71
2021/05/28 00:21:39;;;;;;;3.97;1.90;;;10.00;99.90;;;;;;5043145;28;20053;-71
2021/05/28 00:24:07;;;;;;;2.78;1.40;;;10.00;99.90;;;;;;5045312;28;20053;-71
2021/05/28 00:26:34;;;;;;;2.20;1.20;;;10.00;99.90;;;;;;5040025;28;20050;-71
2021/05/28 00:29:01;;;;;;;1.38;1.08;;;9.90;99.90;;;;;;5053595;28;20084;-71
2021/05/28 00:31:27;;;;;;;1.20;1.00;;;9.90;99.90;;;;;;5034745;28;20095;-71
2021/05/28 00:33:54;;;;;;;1.70;1.00;;;9.80;99.90;;;;;;5032654;28;20119;-71
2021/05/28 00:36:21;;;;;;;2.10;1.52;;;9.70;99.90;;;;;;5046333;28;20084;-72
2021/05/28 00:38:48;;;;;;;1.85;1.10;;;9.70;99.90;;;;;;5055626;28;20079;-71
2021/05/28 00:41:15;;;;;;;1.48;1.10;;;9.60;99.90;;;;;;5051190;28;20130;-71
2021/05/28 00:43:42;;;;;;;2.28;1.20;;;9.50;99.90;;;;;;5053571;28;20053;-70
2021/05/28 00:46:09;;;;;;;1.52;1.20;;;9.50;99.90;;;;;;5050044;28;20088;-71
2021/05/28 00:48:36;;;;;;;2.00;1.20;;;9.50;99.90;;;;;;5038526;28;20161;-71
2021/05/28 00:51:03;;;;;;;2.10;1.25;;;9.40;99.90;;;;;;5029136;28;20148;-71
2021/05/28 00:53:31;;;;;;;1.52;1.13;;;9.40;99.90;;;;;;5058148;28;20138;-70
2021/05/28 00:56:00;;;;;;;1.83;1.20;;;9.40;99.90;;;;;;5053361;28;20048;-72
2021/05/28 00:58:27;;;;;;;;;;;9.40;99.90;;;;;;5037018;28;20392;-71
2021/05/28 01:00:53;;;;;;;3.20;1.40;;;9.30;99.90;;;;;;5020763;28;19920;-71
2021/05/28 01:03:20;;;;;;;2.03;1.27;;;9.30;99.90;;;;;;5049954;28;20076;-70
2021/05/28 01:05:47;;;;;;;1.48;1.30;;;9.30;99.90;;;;;;5045324;28;20072;-70
2021/05/28 01:08:14;;;;;;;2.22;1.23;;;9.30;99.90;;;;;;5043146;28;20075;-71
2021/05/28 01:10:41;;;;;;;2.30;1.40;;;9.30;99.90;;;;;;5040062;28;20089;-71
2021/05/28 01:13:09;;;;;;;3.47;1.42;;;9.20;99.90;;;;;;5050887;28;20128;-71
2021/05/28 01:15:37;;;;;;;2.28;1.30;;;9.20;99.90;;;;;;5047579;28;20057;-71
2021/05/28 01:18:04;;;;;;;22.95;2.15;;;9.10;99.90;;;;;;5043204;28;20569;-70
2021/05/28 01:20:32;;;;;;;1.50;0.75;;;9.00;99.90;;;;;;5031878;28;20128;-70
2021/05/28 01:23:00;;;;;;;2.05;1.15;;;8.90;99.90;;;;;;5032082;28;20081;-71
2021/05/28 01:25:27;;;;;;;;;;;8.80;99.90;;;;;;5031621;28;20067;-71
2021/05/28 01:27:54;;;;;;;1.08;0.93;;;8.70;99.90;;;;;;5033468;28;19925;-70
2021/05/28 01:30:23;;;;;;;1.00;0.82;;;8.70;99.90;;;;;;5056640;28;20083;-71
2021/05/28 01:32:51;;;;;;;1.85;1.05;;;8.70;99.90;;;;;;5061269;28;20052;-70
2021/05/28 01:35:18;;;;;;;1.95;1.00;;;8.70;99.90;;;;;;5054062;28;20041;-70
2021/05/28 01:37:57;;;;;;;2.28;1.10;;;8.70;99.90;;;;;;5054640;28;20079;-71
2021/05/28 01:40:24;;;;;;;2.63;1.30;;;8.60;99.90;;;;;;5043313;28;20077;-70
2021/05/28 01:42:50;;;;;;;1.35;1.25;;;8.60;99.90;;;;;;5042155;28;20149;-70
2021/05/28 01:45:18;;;;;;;2.00;1.42;;;8.60;99.90;;;;;;5015836;28;20431;-70
2021/05/28 01:47:45;;;;;;;7.03;1.75;;;8.60;99.90;;;;;;5048118;28;20438;-71
2021/05/28 01:50:13;;;;;;;21.67;2.88;;;8.50;99.90;;;;;;5053052;28;20048;-71
2021/05/28 01:52:40;;;;;;;1.90;1.10;;;8.50;99.90;;;;;;5051973;28;20140;-70
2021/05/28 01:55:13;;;;;;;1.15;1.00;;;8.50;99.90;;;;;;5040490;28;20102;-70
2021/05/28 01:57:40;;;;;;;1.20;0.95;;;8.40;99.90;;;;;;5047415;28;20092;-70
2021/05/28 02:00:12;;;;;;;1.10;1.00;;;8.40;99.90;;;;;;5047397;28;20072;-70
2021/05/28 02:02:39;;;;;;;1.08;0.90;;;8.40;99.90;;;;;;5046845;28;20557;-70
2021/05/28 02:05:08;;;;;;;0.90;0.90;;;8.30;99.90;;;;;;5046468;28;20465;-71
2021/05/28 02:07:36;;;;;;;1.80;1.05;;;8.40;99.90;;;;;;5047475;28;20507;-71
2021/05/28 02:10:04;;;;;;;1.85;1.20;;;8.30;99.90;;;;;;5044024;28;20147;-71
2021/05/28 02:12:31;;;;;;;1.23;1.02;;;8.30;99.90;;;;;;5037047;28;20040;-70
2021/05/28 02:14:59;;;;;;;1.40;1.13;;;8.30;99.90;;;;;;5046175;28;20426;-71
2021/05/28 02:17:25;;;;;;;1.15;0.80;;;8.20;99.90;;;;;;5039690;28;25205;-71
2021/05/28 02:19:55;;;;;;;1.23;0.77;;;8.20;99.90;;;;;;5015838;28;20117;-70
2021/05/28 02:22:22;;;;;;;0.85;0.80;;;8.20;99.90;;;;;;5045111;28;20072;-71
2021/05/28 02:24:49;;;;;;;0.77;0.60;;;8.20;99.90;;;;;;5062118;28;20451;-71
2021/05/28 02:27:15;;;;;;;0.40;0.40;;;8.10;99.90;;;;;;5037852;28;20172;-70
2021/05/28 02:29:42;;;;;;;1.70;1.05;;;8.10;99.90;;;;;;5063366;28;20094;-70
2021/05/28 02:32:09;;;;;;;2.05;1.10;;;8.10;99.90;;;;;;5040514;28;20080;-70
2021/05/28 02:34:37;;;;;;;2.60;1.10;;;8.10;99.90;;;;;;5057602;28;20076;-70
2021/05/28 02:37:04;;;;;;;5.20;1.40;;;8.10;99.90;;;;;;5020616;28;20076;-70
2021/05/28 02:39:31;;;;;;;11.73;1.55;;;8.00;99.90;;;;;;5047729;28;20068;-70
2021/05/28 02:41:58;;;;;;;7.22;1.52;;;8.00;99.90;;;;;;5023147;28;20075;-70
2021/05/28 02:44:24;;;;;;;2.75;1.30;;;8.00;99.90;;;;;;5047711;28;20085;-70
2021/05/28 02:46:51;;;;;;;6.82;1.33;;;8.00;99.90;;;;;;5045331;28;20072;-70
2021/05/28 02:49:18;;;;;;;4.20;1.45;;;7.90;99.90;;;;;;5049644;28;20052;-71
2021/05/28 02:51:45;;;;;;;9.60;1.55;;;7.90;99.90;;;;;;5046796;28;20467;-71
2021/05/28 02:54:11;;;;;;;7.10;1.98;;;7.90;99.90;;;;;;5041500;28;20099;-70
2021/05/28 02:56:38;;;;;;;3.83;1.60;;;7.90;99.90;;;;;;5058224;28;20087;-70
2021/05/28 02:59:05;;;;;;;2.30;1.20;;;7.90;99.90;;;;;;5045290;28;20098;-70
2021/05/28 03:01:32;;;;;;;2.17;1.30;;;7.90;99.90;;;;;;5045535;28;20057;-70
2021/05/28 03:03:58;;;;;;;3.08;1.17;;;8.00;99.90;;;;;;5038179;28;20523;-71
2021/05/28 03:06:25;;;;;;;1.67;1.10;;;8.00;99.90;;;;;;5054003;28;20044;-71
2021/05/28 03:08:52;;;;;;;1.27;1.13;;;8.00;99.90;;;;;;5048487;28;20072;-70
2021/05/28 03:11:19;;;;;;;2.58;1.20;;;7.90;99.90;;;;;;5046654;28;20123;-70
2021/05/28 03:13:45;;;;;;;1.27;1.17;;;7.90;99.90;;;;;;5059827;28;20045;-71
2021/05/28 03:16:12;;;;;;;1.75;1.10;;;7.90;99.90;;;;;;5053426;28;20049;-71
2021/05/28 03:19:00;;;;;;;1.30;1.20;;;7.90;99.90;;;;;;5050464;28;20073;-70
2021/05/28 03:23:59;;;;;;;1.50;1.10;;;7.80;99.90;;;;;;5057156;28;20143;-71
2021/05/28 03:26:28;;;;;;;1.45;1.00;;;7.80;99.90;;;;;;5020903;28;20064;-70
2021/05/28 03:28:55;;;;;;;1.38;1.20;;;7.80;99.90;;;;;;5028234;28;20076;-70
2021/05/28 03:31:23;;;;;;;1.50;1.20;;;7.80;99.90;;;;;;5048221;28;20446;-70
2021/05/28 03:33:50;;;;;;;1.48;1.02;;;7.70;99.90;;;;;;5051181;28;20462;-70
2021/05/28 03:36:17;;;;;;;1.10;1.00;;;7.70;99.90;;;;;;5053963;28;20072;-70
2021/05/28 03:38:45;;;;;;;2.17;1.30;;;7.70;99.90;;;;;;5077022;28;20076;-71
2021/05/28 03:41:12;;;;;;;1.35;1.20;;;7.60;99.90;;;;;;5059512;28;20072;-70
2021/05/28 03:43:38;;;;;;;1.30;1.08;;;7.60;99.90;;;;;;5059561;28;20638;-70
2021/05/28 03:46:05;;;;;;;2.90;1.10;;;7.50;99.90;;;;;;5045137;28;20477;-70
2021/05/28 03:48:32;;;;;;;1.20;1.00;;;7.50;99.90;;;;;;5048718;28;20436;-70
2021/05/28 03:50:58;;;;;;;1.40;0.93;;;7.50;99.90;;;;;;5046823;28;20052;-70
2021/05/28 03:53:25;;;;;;;3.17;1.00;;;7.50;99.90;;;;;;5054505;28;20143;-70
2021/05/28 03:55:52;;;;;;;2.08;1.30;;;7.50;99.90;;;;;;5053938;28;20441;-70
2021/05/28 03:58:18;;;;;;;3.40;1.30;;;7.40;99.90;;;;;;5055034;28;20083;-70
2021/05/28 04:00:45;;;;;;;5.07;1.10;;;7.50;99.90;;;;;;5057033;28;20077;-70
2021/05/28 04:03:12;;;;;;;1.35;0.90;;;7.40;99.90;;;;;;5058481;28;20099;-71
2021/05/28 04:05:39;;;;;;;4.03;1.20;;;7.50;99.90;;;;;;5045562;28;20045;-70
2021/05/28 04:08:06;;;;;;;9.60;1.00;;;7.50;99.90;;;;;;5050504;28;20076;-71
2021/05/28 04:10:32;;;;;;;8.25;1.00;;;7.50;99.90;;;;;;5051909;28;20100;-71
2021/05/28 04:12:59;;;;;;;17.92;1.88;;;7.50;99.90;;;;;;5061975;28;20045;-70
2021/05/28 04:15:26;;;;;;;8.63;2.22;;;7.50;99.90;;;;;;5046312;28;20037;-70
2021/05/28 04:17:53;;;;;;;13.07;1.27;;;7.50;99.90;;;;;;5045765;28;20064;-70
2021/05/28 04:20:19;;;;;;;10.18;1.40;;;7.50;99.90;;;;;;5050454;28;20064;-70
2021/05/28 04:22:46;;;;;;;10.73;1.30;;;7.50;99.90;;;;;;5065738;28;20077;-70
2021/05/28 04:25:13;;;;;;;25.00;2.28;;;7.50;99.90;;;;;;5046037;28;20460;-70
2021/05/28 04:27:46;;;;;;;14.50;2.72;;;7.60;99.90;;;;;;5045112;28;20053;-71
2021/05/28 04:30:14;;;;;;;4.45;1.58;;;7.60;99.90;;;;;;5036511;28;20139;-70
2021/05/28 04:32:40;;;;;;;10.80;1.50;;;7.60;99.90;;;;;;5044039;28;20073;-70
2021/05/28 04:35:08;;;;;;;15.23;1.50;;;7.60;99.90;;;;;;5048194;28;20075;-71
2021/05/28 04:37:35;;;;;;;8.13;1.75;;;7.70;99.90;;;;;;5034313;28;20049;-70
2021/05/28 04:40:02;;;;;;;4.05;1.38;;;7.80;99.90;;;;;;5032764;28;20064;-70
2021/05/28 04:42:29;;;;;;;14.00;1.90;;;7.80;99.90;;;;;;5048227;28;20094;-70
2021/05/28 04:44:56;;;;;;;2.10;1.33;;;7.90;99.90;;;;;;5043355;28;20100;-71
2021/05/28 04:47:22;;;;;;;2.90;1.50;;;8.00;99.90;;;;;;5046701;28;20080;-70
2021/05/28 04:49:49;;;;;;;2.42;1.67;;;8.10;99.90;;;;;;5037969;28;20077;-71
2021/05/28 04:52:16;;;;;;;1.55;1.38;;;8.10;99.90;;;;;;5045112;28;20049;-71
2021/05/28 04:54:43;;;;;;;1.48;1.27;;;8.20;99.90;;;;;;5055748;28;20182;-71
2021/05/28 04:57:09;;;;;;;3.15;1.30;;;8.30;99.90;;;;;;5045926;28;20072;-71
2021/05/28 04:59:36;;;;;;;1.98;1.40;;;8.40;99.90;;;;;;5054728;28;20509;-70
2021/05/28 05:02:05;;;;;;;1.67;1.38;;;8.60;99.90;;;;;;5040866;28;20071;-70
2021/05/28 05:04:31;;;;;;;1.40;1.30;;;8.70;99.90;;;;;;5041402;28;20080;-71
2021/05/28 05:06:58;;;;;;;1.38;1.10;;;8.80;99.90;;;;;;5041924;28;20046;-70
2021/05/28 05:09:25;;;;;;;2.25;1.30;;;8.90;99.90;;;;;;5038241;28;20483;-71
2021/05/28 05:11:53;;;;;;;3.85;1.30;;;9.00;99.90;;;;;;5029716;28;20051;-70
2021/05/28 05:14:20;;;;;;;2.20;1.48;;;9.10;99.90;;;;;;5048357;28;20116;-71
2021/05/28 05:16:47;;;;;;;3.05;1.40;;;9.20;99.90;;;;;;5053742;28;20049;-71
2021/05/28 05:19:14;;;;;;;2.38;1.40;;;9.30;99.90;;;;;;5055635;28;20407;-71
2021/05/28 05:21:41;;;;;;;1.95;1.40;;;9.30;99.90;;;;;;5045529;28;20400;-70
2021/05/28 05:24:08;;;;;;;2.03;1.30;;;9.30;99.90;;;;;;5028738;28;20108;-71
2021/05/28 05:26:35;;;;;;;1.85;1.50;;;9.40;99.90;;;;;;5023144;28;20427;-71
2021/05/28 05:29:03;;;;;;;1.98;1.60;;;9.40;99.90;;;;;;5070117;28;20107;-70
2021/05/28 05:31:30;;;;;;;2.00;1.80;;;9.50;99.90;;;;;;5043203;28;20193;-71
2021/05/28 05:33:57;;;;;;;2.58;1.65;;;9.60;99.90;;;;;;5054366;28;20518;-71
2021/05/28 05:36:25;;;;;;;2.33;1.70;;;9.70;99.90;;;;;;5041310;28;20084;-70
2021/05/28 05:38:52;;;;;;;2.00;1.65;;;9.80;99.90;;;;;;5040688;28;20090;-71
2021/05/28 05:41:19;;;;;;;2.55;1.70;;;9.90;99.90;;;;;;5035425;28;20104;-71
2021/05/28 05:43:45;;;;;;;2.78;1.60;;;10.00;99.90;;;;;;5047139;28;20056;-70
2021/05/28 05:46:13;;;;;;;2.00;1.80;;;10.10;99.90;;;;;;5026890;28;20495;-71
2021/05/28 05:48:39;;;;;;;2.58;1.77;;;10.30;99.90;;;;;;5066963;28;20412;-70
2021/05/28 05:51:07;;;;;;;2.87;1.80;;;10.40;99.90;;;;;;5056794;28;20047;-70
2021/05/28 05:53:34;;;;;;;3.03;1.70;;;10.60;99.90;;;;;;5055814;28;20056;-70
2021/05/28 05:56:01;;;;;;;1.73;1.52;;;10.70;99.90;;;;;;5051715;28;20477;-70
2021/05/28 05:58:37;;;;;;;2.70;1.80;;;10.90;99.90;;;;;;5033564;28;20076;-70
2021/05/28 06:01:03;;;;;;;2.10;1.70;;;11.00;99.90;;;;;;5038077;28;20044;-71
2021/05/28 06:03:30;;;;;;;2.38;1.55;;;11.20;99.90;;;;;;5066578;28;20044;-71
2021/05/28 06:05:57;;;;;;;1.95;1.52;;;11.30;99.90;;;;;;5054114;28;20050;-71
2021/05/28 06:08:24;;;;;;;2.42;1.70;;;11.50;99.90;;;;;;5046715;28;20083;-70
2021/05/28 06:10:51;;;;;;;4.57;1.95;;;11.60;99.90;;;;;;5063049;28;20084;-71
2021/05/28 06:13:18;;;;;;;3.50;1.90;;;11.70;99.90;;;;;;5042692;28;20086;-70
2021/05/28 06:15:45;;;;;;;2.40;1.77;;;11.80;99.90;;;;;;5049949;28;20084;-71
2021/05/28 06:18:11;;;;;;;3.92;1.90;;;11.80;99.90;;;;;;5021293;28;20129;-71
2021/05/28 06:20:38;;;;;;;2.35;1.70;;;11.90;99.90;;;;;;5011394;28;20116;-71
2021/05/28 06:23:05;;;;;;;2.13;1.48;;;12.00;99.90;;;;;;5025627;28;20124;-71
2021/05/28 06:25:32;;;;;;;3.67;2.00;;;12.10;99.90;;;;;;5026842;28;20546;-71
2021/05/28 06:27:58;;;;;;;3.08;1.95;;;12.20;99.90;;;;;;5029275;28;20092;-71
2021/05/28 06:30:25;;;;;;;3.05;1.80;;;12.30;99.90;;;;;;5025598;28;20501;-71
2021/05/28 06:32:52;;;;;;;4.05;2.05;;;12.40;99.90;;;;;;5026546;28;20069;-71
2021/05/28 06:35:19;;;;;;;3.47;2.10;;;12.50;99.90;;;;;;5024399;28;20683;-72
2021/05/28 06:37:45;;;;;;;4.55;2.08;;;12.50;99.90;;;;;;5025670;28;20896;-71
2021/05/28 06:40:13;;;;;;;4.50;2.10;;;12.60;99.90;;;;;;5027512;28;20107;-71
2021/05/28 06:42:39;;;;;;;2.90;2.10;;;12.70;99.90;;;;;;5027090;28;20081;-71
2021/05/28 06:45:07;;;;;;;4.13;2.47;;;12.70;99.90;;;;;;5009771;28;20116;-71
2021/05/28 06:47:34;;;;;;;3.60;2.22;;;12.80;99.90;;;;;;5025687;28;20072;-72
2021/05/28 06:50:01;;;;;;;5.53;2.30;;;12.80;99.90;;;;;;5025165;28;20041;-71
2021/05/28 06:52:28;;;;;;;4.63;2.63;;;12.80;99.90;;;;;;5026358;28;20057;-71
2021/05/28 06:54:54;;;;;;;3.45;2.05;;;12.80;99.90;;;;;;5025232;28;20326;-71
2021/05/28 06:57:22;;;;;;;3.28;2.00;;;12.90;99.90;;;;;;5025726;28;20076;-71
2021/05/28 06:59:48;;;;;;;2.90;1.80;;;13.00;99.90;;;;;;5028780;28;20053;-71
2021/05/28 07:02:15;;;;;;;4.28;1.77;;;13.00;99.90;;;;;;5030656;28;20181;-71
2021/05/28 07:04:42;;;;;;;3.20;2.20;;;13.10;99.90;;;;;;5014684;28;20057;-71
2021/05/28 07:07:09;;;;;;;4.45;2.15;;;13.20;99.90;;;;;;5031340;28;20076;-72
2021/05/28 07:09:36;;;;;;;3.05;1.98;;;13.30;99.90;;;;;;5023846;28;20079;-71
2021/05/28 07:12:03;;;;;;;4.85;2.13;;;13.40;99.90;;;;;;5031637;28;20172;-71
2021/05/28 07:14:30;;;;;;;3.90;2.22;;;13.30;99.90;;;;;;5030714;28;20067;-70
2021/05/28 07:16:57;;;;;;;3.47;2.20;;;13.30;99.90;;;;;;5023876;28;20076;-71
2021/05/28 07:19:24;;;;;;;3.67;2.05;;;13.30;99.90;;;;;;5024671;28;20053;-71
2021/05/28 07:21:50;;;;;;;3.42;2.10;;;13.30;99.90;;;;;;5026910;28;20080;-71
2021/05/28 07:24:17;;;;;;;4.75;2.00;;;13.30;99.90;;;;;;5027128;28;20119;-71
2021/05/28 07:26:44;;;;;;;4.55;2.05;;;13.30;99.90;;;;;;5026675;28;20463;-70
2021/05/28 07:29:12;;;;;;;4.15;1.80;;;13.30;99.90;;;;;;5008452;28;20050;-71
2021/05/28 07:31:38;;;;;;;3.53;2.22;;;13.30;99.90;;;;;;5026545;28;20484;-71
2021/05/28 07:34:05;;;;;;;3.10;2.08;;;13.30;99.90;;;;;;5024945;28;20434;-71
2021/05/28 07:36:32;;;;;;;3.75;2.40;;;13.40;99.90;;;;;;5010983;28;20072;-70
2021/05/28 07:38:59;;;;;;;7.00;3.00;;;13.50;99.90;;;;;;5009332;28;20077;-70
2021/05/28 07:41:26;;;;;;;5.38;3.10;;;13.50;99.90;;;;;;5026847;28;20447;-70
2021/05/28 07:43:52;;;;;;;4.40;3.40;;;13.60;99.90;;;;;;5023373;28;20171;-71
2021/05/28 07:46:19;;;;;;;5.13;3.00;;;13.60;99.90;;;;;;5011119;28;20147;-70
2021/05/28 07:48:46;;;;;;;5.32;3.58;;;13.70;99.90;;;;;;5028248;28;20472;-71
2021/05/28 07:51:14;;;;;;;4.25;3.45;;;13.70;99.90;;;;;;5027392;28;20081;-71
2021/05/28 07:53:41;;;;;;;4.10;3.03;;;13.70;99.90;;;;;;5008724;28;20078;-70
2021/05/28 07:56:09;;;;;;;5.40;3.00;;;13.70;99.90;;;;;;5010090;28;22041;-71
2021/05/28 07:58:36;;;;;;;3.90;2.75;;;13.70;99.90;;;;;;5012736;28;20073;-71
2021/05/28 08:01:03;;;;;;;4.50;2.92;;;13.70;99.90;;;;;;5009248;28;20698;-71
2021/05/28 08:03:30;;;;;;;3.72;3.00;;;13.60;99.90;;;;;;5010694;28;20069;-71
2021/05/28 08:05:57;;;;;;;5.70;3.47;;;13.40;99.90;;;;;;5023953;28;20512;-71
2021/05/28 08:08:27;;;;;;;4.35;2.90;;;13.40;99.90;;;;;;5009170;28;20054;-71
2021/05/28 08:10:54;;;;;;;5.57;3.08;;;13.40;99.90;;;;;;5009760;28;20136;-70
2021/05/28 08:13:20;;;;;;;5.32;2.95;;;13.50;99.90;;;;;;5009720;28;20144;-71
2021/05/28 08:15:48;;;;;;;3.65;2.85;;;13.60;99.90;;;;;;5020876;28;20081;-71
2021/05/28 08:18:15;;;;;;;5.20;3.08;;;13.80;99.90;;;;;;5010656;28;20737;-70
2021/05/28 08:20:42;;;;;;;4.32;2.75;;;13.90;99.90;;;;;;4990308;28;20080;-71
2021/05/28 08:23:09;;;;;;;5.15;3.13;;;13.90;99.90;;;;;;5013150;28;20048;-71
2021/05/28 08:25:36;;;;;;;4.72;2.92;;;14.00;99.90;;;;;;5010835;28;20179;-71
2021/05/28 08:28:03;;;;;;;5.75;2.83;;;14.00;99.90;;;;;;5008332;28;20081;-71
2021/05/28 08:30:30;;;;;;;4.38;2.72;;;14.10;99.90;;;;;;5013155;28;20076;-71
2021/05/28 08:32:56;;;;;;;7.47;3.10;;;14.10;99.90;;;;;;5008216;28;20077;-71
2021/05/28 08:35:23;;;;;;;5.15;3.00;;;14.20;99.90;;;;;;5005242;28;20181;-71
2021/05/28 08:37:50;;;;;;;4.78;2.50;;;14.20;99.90;;;;;;5008849;28;20080;-71
2021/05/28 08:40:18;;;;;;;2.55;2.10;;;14.30;99.90;;;;;;5024942;28;20107;-71
2021/05/28 08:42:45;;;;;;;4.47;2.72;;;14.40;99.90;;;;;;5011055;28;20060;-71
2021/05/28 08:45:13;;;;;;;4.03;2.50;;;14.40;99.90;;;;;;5010079;28;20207;-71
2021/05/28 08:47:41;;;;;;;4.15;2.95;;;14.40;99.90;;;;;;5012922;28;20096;-71
2021/05/28 08:50:09;;;;;;;4.95;3.00;;;14.40;99.90;;;;;;5008602;28;20104;-71
2021/05/28 08:52:36;;;;;;;6.80;3.00;;;14.40;99.90;;;;;;5011636;28;20085;-71
2021/05/28 08:55:05;;;;;;;4.97;2.70;;;14.30;99.90;;;;;;5028743;28;20045;-71
2021/05/28 08:57:32;;;;;;;3.85;2.70;;;14.20;99.90;;;;;;5031606;28;20441;-71
2021/05/28 08:59:59;;;;;;;4.30;2.37;;;14.30;99.90;;;;;;5043781;28;20068;-71
2021/05/28 09:02:35;;;;;;;4.45;2.35;;;14.30;99.90;;;;;;5028004;28;20108;-72
2021/05/28 09:05:16;;;;;;;5.10;2.77;;;14.40;99.90;;;;;;5029464;28;20132;-71
2021/05/28 09:07:56;;;;;;;4.72;3.35;;;14.40;99.90;;;;;;5027711;28;20076;-71
2021/05/28 09:10:30;;;;;;;5.82;3.10;;;14.50;99.90;;;;;;5043691;28;20076;-71
2021/05/28 09:13:11;;;;;;;3.95;3.10;;;14.50;99.90;;;;;;5028429;28;20077;-71
2021/05/28 09:15:40;;;;;;;3.63;2.50;;;14.50;99.90;;;;;;5030986;28;20077;-71
2021/05/28 09:18:07;;;;;;;6.18;2.83;;;14.60;99.90;;;;;;5025446;28;20202;-71
2021/05/28 09:20:34;;;;;;;4.30;2.80;;;14.70;99.90;;;;;;5020615;28;20073;-71
2021/05/28 09:23:07;;;;;;;4.53;3.15;;;14.60;99.90;;;;;;5031715;28;20100;-71
2021/05/28 09:26:03;;;;;;;3.88;2.90;;;14.70;99.90;;;;;;5026302;28;20095;-71
2021/05/28 09:28:41;;;;;;;4.38;2.72;;;14.70;99.90;;;;;;5030532;28;20076;-72
2021/05/28 09:31:11;;;;;;;3.90;2.15;;;14.70;99.90;;;;;;5025859;28;20080;-71
2021/05/28 09:33:41;;;;;;;2.53;2.00;;;14.80;99.90;;;;;;5029289;28;20143;-71
2021/05/28 09:36:12;;;;;;;3.95;2.15;;;14.90;99.90;;;;;;5027250;28;20123;-71
2021/05/28 09:38:40;;;;;;;5.35;2.78;;;15.00;99.90;;;;;;5031218;28;20150;-71
2021/05/28 09:41:07;;;;;;;;;;;15.00;99.90;;;;;;5024510;28;20472;-72
2021/05/28 09:43:34;;;;;;;3.00;2.05;;;15.00;99.90;;;;;;5028567;28;19960;-71
2021/05/28 09:46:11;;;;;;;2.00;1.70;;;15.10;99.90;;;;;;5025146;28;20054;-71
2021/05/28 09:48:38;;;;;;;3.58;2.28;;;15.20;99.90;;;;;;5010897;28;20049;-72
2021/05/28 09:51:06;;;;;;;3.38;2.55;;;15.30;99.90;;;;;;5008004;28;20046;-72
2021/05/28 09:53:43;;;;;;;3.10;2.35;;;15.30;99.90;;;;;;5027182;28;20077;-72
2021/05/28 09:56:40;;;;;;;2.57;2.20;;;15.20;99.90;;;;;;5024632;28;20068;-72
2021/05/28 09:59:08;;;;;;;4.32;2.40;;;15.30;99.90;;;;;;5020927;28;20056;-73
2021/05/28 10:01:37;;;;;;;3.40;2.20;;;15.30;99.90;;;;;;5031557;28;20074;-71
2021/05/28 10:04:06;;;;;;;2.88;2.20;;;15.30;99.90;;;;;;5035461;28;20053;-72
2021/05/28 10:06:35;;;;;;;3.10;2.00;;;15.30;99.90;;;;;;5029965;28;20140;-72
2021/05/28 10:09:09;;;;;;;2.63;1.98;;;15.40;99.90;;;;;;5029876;28;20085;-71
2021/05/28 10:11:39;;;;;;;2.63;1.80;;;15.40;99.90;;;;;;5024940;28;20485;-72
2021/05/28 10:14:08;;;;;;;2.85;1.80;;;15.50;99.90;;;;;;5026310;28;20045;-71
2021/05/28 10:16:36;;;;;;;2.22;1.63;;;15.50;99.90;;;;;;5023951;28;20483;-72
2021/05/28 10:19:04;;;;;;;2.03;1.58;;;15.60;99.90;;;;;;5015167;28;20057;-72
2021/05/28 10:21:31;;;;;;;2.22;1.20;;;15.60;99.90;;;;;;5010816;28;20064;-72
2021/05/28 10:23:59;;;;;;;2.70;1.55;;;15.60;99.90;;;;;;5033757;28;20072;-72
2021/05/28 10:26:28;;;;;;;2.85;1.75;;;15.70;99.90;;;;;;5027136;28;20480;-71
2021/05/28 10:28:56;;;;;;;1.83;1.60;;;15.70;99.90;;;;;;5029415;28;20079;-72
2021/05/28 10:31:55;;;;;;;1.48;1.33;;;15.80;99.90;;;;;;5029208;28;20088;-72
2021/05/28 10:34:23;;;;;;;1.33;1.20;;;15.80;99.90;;;;;;5029593;28;20117;-71
2021/05/28 10:36:50;;;;;;;1.38;1.27;;;15.90;99.90;;;;;;5030233;28;20537;-72
2021/05/28 10:39:18;;;;;;;2.75;1.30;;;15.90;99.90;;;;;;5034289;28;20076;-72
2021/05/28 10:41:57;;;;;;;2.30;1.40;;;16.10;99.90;;;;;;5030378;28;20160;-71
2021/05/28 10:44:26;;;;;;;1.38;1.13;;;16.20;99.90;;;;;;5036055;28;20472;-71
2021/05/28 10:46:56;;;;;;;1.48;1.20;;;16.20;99.90;;;;;;5032961;28;20143;-71
2021/05/28 10:49:37;;;;;;;1.08;0.90;;;16.30;99.90;;;;;;5036350;28;20776;-71
2021/05/28 10:52:05;;;;;;;1.27;1.13;;;16.40;99.90;;;;;;5029166;28;20661;-72
2021/05/28 10:54:33;;;;;;;1.85;1.30;;;16.40;99.90;;;;;;5042848;28;20076;-71
2021/05/28 10:57:20;;;;;;;0.93;0.90;;;16.50;99.90;;;;;;5025901;28;20083;-72
2021/05/28 10:59:49;;;;;;;1.83;1.38;;;16.60;99.90;;;;;;5027910;28;20129;-72
2021/05/28 11:02:45;;;;;;;1.95;1.10;;;16.70;99.90;;;;;;5028912;28;20555;-72
2021/05/28 11:05:13;;;;;;;1.95;1.30;;;16.70;99.90;;;;;;5011260;28;20136;-72
2021/05/28 11:07:44;;;;;;;1.65;1.40;;;16.90;99.90;;;;;;5027113;28;20083;-71
2021/05/28 11:10:20;;;;;;;1.85;1.60;;;16.90;99.90;;;;;;5031591;28;20095;-71
2021/05/28 11:12:46;;;;;;;1.73;1.38;;;16.90;99.90;;;;;;5030454;28;20053;-71
2021/05/28 11:15:22;;;;;;;1.42;1.33;;;16.90;99.90;;;;;;5025913;28;20564;-72
2021/05/28 11:17:57;;;;;;;1.45;1.33;;;17.00;99.90;;;;;;5026233;28;20081;-72
2021/05/28 11:20:36;;;;;;;2.00;1.60;;;17.00;99.90;;;;;;5041875;28;20072;-72
2021/05/28 11:23:14;;;;;;;1.40;1.30;;;17.10;99.90;;;;;;5026066;28;20415;-72
2021/05/28 11:25:45;;;;;;;;;;;17.20;99.90;;;;;;5027976;28;20053;-71
2021/05/28 11:28:12;;;;;;;3.92;1.90;;;17.20;99.90;;;;;;5013747;28;19921;-72
2021/05/28 11:30:43;;;;;;;2.25;1.52;;;17.20;99.90;;;;;;5033919;28;20083;-72
2021/05/28 11:33:33;;;;;;;2.67;1.60;;;17.20;99.90;;;;;;5033462;28;20134;-72
2021/05/28 11:36:00;;;;;;;2.45;1.73;;;17.20;99.90;;;;;;5033249;28;20140;-73
2021/05/28 11:38:32;;;;;;;2.90;2.00;;;17.30;99.90;;;;;;5037033;28;20134;-72
2021/05/28 11:41:00;;;;;;;2.53;1.80;;;17.30;99.90;;;;;;5032810;28;20536;-72
2021/05/28 11:43:34;;;;;;;2.53;1.75;;;17.40;99.90;;;;;;5030141;28;20445;-72
2021/05/28 11:46:01;;;;;;;1.80;1.63;;;17.40;99.90;;;;;;5032711;28;20146;-72
2021/05/28 11:48:29;;;;;;;2.13;1.65;;;17.40;99.90;;;;;;5030253;28;20144;-72
2021/05/28 11:51:01;;;;;;;2.53;1.50;;;17.50;99.90;;;;;;5029032;28;20481;-72
2021/05/28 11:53:37;;;;;;;1.98;1.27;;;17.50;99.90;;;;;;5027707;28;20081;-72
2021/05/28 11:56:05;;;;;;;2.80;2.00;;;17.60;99.90;;;;;;5011049;28;20086;-71
2021/05/28 11:58:34;;;;;;;2.65;1.52;;;17.60;99.90;;;;;;5044142;28;20132;-71
2021/05/28 12:01:03;;;;;;;2.63;1.73;;;17.70;99.90;;;;;;5029445;28;20049;-72
2021/05/28 12:03:30;;;;;;;2.65;1.95;;;17.70;99.90;;;;;;5017790;28;20041;-72
2021/05/28 12:06:05;;;;;;;2.47;1.97;;;17.70;99.90;;;;;;5026536;28;20072;-72
2021/05/28 12:08:31;;;;;;;4.18;2.20;;;17.60;99.90;;;;;;5031721;28;20050;-72
2021/05/28 12:11:05;;;;;;;2.95;2.42;;;17.60;99.90;;;;;;5030398;28;20145;-72
2021/05/28 12:13:37;;;;;;;3.20;2.40;;;17.50;99.90;;;;;;5027900;28;20470;-71
2021/05/28 12:16:06;;;;;;;2.70;2.25;;;17.50;99.90;;;;;;5030104;28;20052;-72
2021/05/28 12:18:47;;;;;;;2.75;2.10;;;17.50;99.90;;;;;;5036420;28;20636;-73
2021/05/28 12:21:17;;;;;;;1.80;1.70;;;17.60;99.90;;;;;;5029767;28;20045;-72
2021/05/28 12:23:45;;;;;;;2.63;2.00;;;17.70;99.90;;;;;;5029727;28;20545;-72
2021/05/28 12:26:18;;;;;;;5.10;1.90;;;17.80;99.90;;;;;;5031201;28;20192;-72
2021/05/28 12:28:55;;;;;;;2.42;1.80;;;17.90;99.90;;;;;;5029169;28;20184;-73
2021/05/28 12:31:24;;;;;;;2.47;2.10;;;18.00;99.90;;;;;;5043607;28;20049;-72
2021/05/28 12:34:07;;;;;;;2.22;1.92;;;18.10;99.90;;;;;;5029100;28;20492;-71
2021/05/28 12:36:40;;;;;;;2.83;1.95;;;18.20;99.90;;;;;;5028617;28;20065;-72
2021/05/28 12:39:12;;;;;;;2.58;1.92;;;18.30;99.90;;;;;;5028214;28;20065;-72
2021/05/28 12:41:42;;;;;;;2.60;2.00;;;18.40;99.90;;;;;;5027814;28;20067;-71
2021/05/28 12:44:14;;;;;;;3.47;2.10;;;18.50;99.90;;;;;;5028130;28;20100;-72
2021/05/28 12:46:41;;;;;;;2.92;2.30;;;18.50;99.90;;;;;;5029169;28;20505;-72
2021/05/28 12:49:10;;;;;;;2.80;2.20;;;18.50;99.90;;;;;;5027629;28;20356;-72
2021/05/28 12:51:48;;;;;;;2.70;1.85;;;18.50;99.90;;;;;;5027623;28;20352;-72
2021/05/28 12:54:18;;;;;;;3.05;2.08;;;18.50;99.90;;;;;;5012600;28;20080;-72
2021/05/28 12:56:46;;;;;;;3.92;2.05;;;18.50;99.90;;;;;;5028063;28;20081;-73
2021/05/28 12:59:20;;;;;;;4.07;1.60;;;18.60;99.90;;;;;;5030948;28;20101;-72
2021/05/28 13:01:48;;;;;;;2.53;1.98;;;18.70;99.90;;;;;;5029989;28;20055;-72